Time;durP1;ratioP1;P1;durP2;ratioP2;P2;SDS_P1;SDS_P2;PMS_P1;PMS_P2;Temp;Humidity;BMP_temperature;BMP_pressure;BME280_temperature;BME280_humidity;BME280_pressure;Samples;Min_cycle;Max_cycle;Signal;HPM_P1;HPM_P2
2022/04/20 00:01:58;;;;;;;11.07;10.27;;;;;;;21.86;28.62;94689.75;6132148;28;104169;-51
2022/04/20 00:04:59;;;;;;;9.27;8.57;;;;;;;21.87;28.56;94693.97;6132189;28;102750;-50
2022/04/20 00:08:02;;;;;;;10.00;9.20;;;;;;;21.86;28.32;94692.41;6138655;28;103435;-50
2022/04/20 00:11:04;;;;;;;9.50;8.70;;;;;;;21.88;28.66;94692.09;6141702;28;103435;-49
2022/04/20 00:14:05;;;;;;;9.53;8.83;;;;;;;21.88;28.90;94692.09;6127736;28;104027;-50
2022/04/20 00:17:07;;;;;;;10.20;9.40;;;;;;;21.86;28.60;94692.41;6135715;28;104203;-51
2022/04/20 00:20:09;;;;;;;10.20;9.40;;;;;;;21.86;28.54;94679.09;6120272;28;102823;-50
2022/04/20 00:23:11;;;;;;;10.33;9.53;;;;;;;21.86;28.86;94694.31;6137082;28;104120;-51
2022/04/20 00:26:13;;;;;;;10.13;9.33;;;;;;;21.87;28.14;94693.19;6127910;28;104305;-51
2022/04/20 00:29:15;;;;;;;9.50;8.77;;;;;;;21.87;28.27;94693.19;6135815;28;104127;-49
2022/04/20 00:32:16;;;;;;;9.47;8.67;;;;;;;21.87;28.47;94693.97;6130518;28;104291;-50
2022/04/20 00:35:18;;;;;;;9.30;8.60;;;;;;;21.86;28.21;94680.97;6134087;28;103943;-49
2022/04/20 00:38:20;;;;;;;9.17;8.47;;;;;;;21.85;28.36;94679.41;6115335;28;103113;-51
2022/04/20 00:41:22;;;;;;;9.93;9.13;;;;;;;21.85;28.52;94682.88;6138199;28;103351;-50
2022/04/20 00:44:25;;;;;;;9.20;8.30;;;;;;;21.85;28.53;94690.84;6134879;28;104188;-50
2022/04/20 00:47:29;;;;;;;9.10;8.50;;;;;;;21.84;28.23;94694.59;6132004;28;103225;-50
2022/04/20 00:50:31;;;;;;;8.90;8.20;;;;;;;21.84;28.21;94681.25;6133410;28;103426;-51
2022/04/20 00:53:33;;;;;;;9.07;8.37;;;;;;;21.84;28.18;94681.25;6132787;28;103070;-50
2022/04/20 00:56:35;;;;;;;9.30;8.60;;;;;;;21.84;28.34;94681.25;6135695;28;104760;-51
2022/04/20 00:59:37;;;;;;;9.67;8.97;;;;;;;21.85;28.65;94671.41;6126753;28;103073;-50
2022/04/20 01:02:39;;;;;;;8.50;7.90;;;;;;;21.84;28.52;94672.50;6136217;28;103987;-51
2022/04/20 01:05:41;;;;;;;9.10;8.50;;;;;;;21.82;28.66;94670.13;6137557;28;103215;-50
2022/04/20 01:08:44;;;;;;;9.07;8.37;;;;;;;21.85;28.42;94676.75;6121564;28;104007;-50
2022/04/20 01:11:49;;;;;;;8.80;8.10;;;;;;;21.84;28.65;94675.94;6124515;28;104267;-50
2022/04/20 01:14:51;;;;;;;9.07;8.37;;;;;;;21.84;28.16;94675.16;6136078;28;104140;-50
2022/04/20 01:17:53;;;;;;;8.60;7.93;;;;;;;21.83;28.10;94674.38;6137900;28;104113;-55
2022/04/20 01:20:54;;;;;;;8.53;7.93;;;;;;;21.80;28.31;94669.66;6124147;28;103413;-51
2022/04/20 01:23:56;;;;;;;8.37;7.77;;;;;;;21.81;28.46;94666.66;6128283;28;103472;-56
2022/04/20 01:26:58;;;;;;;8.67;8.07;;;;;;;21.83;28.42;94669.03;6129768;28;104198;-56
2022/04/20 01:30:00;;;;;;;7.70;7.20;;;;;;;21.83;28.36;94677.03;6113984;28;103032;-56
2022/04/20 01:33:02;;;;;;;8.37;7.77;;;;;;;21.83;28.12;94689.56;6128578;28;104066;-50
2022/04/20 01:36:04;;;;;;;8.17;7.60;;;;;;;21.81;27.95;94687.97;6135088;28;103608;-56
2022/04/20 01:39:06;;;;;;;8.07;7.37;;;;;;;21.81;28.38;94677.31;6135165;28;103168;-55
2022/04/20 01:42:08;;;;;;;8.37;7.77;;;;;;;21.82;28.15;94688.78;6133528;28;103161;-56
2022/04/20 01:45:10;;;;;;;8.13;7.53;;;;;;;21.82;28.30;94683.47;6125619;28;104182;-55
2022/04/20 01:48:12;;;;;;;8.43;7.83;;;;;;;21.81;28.12;94689.84;6136054;28;102988;-55
2022/04/20 01:54:34;;;;;;;7.63;7.13;;;;;;;21.82;28.36;94688.78;6132121;28;103106;-55
2022/04/20 01:57:36;;;;;;;8.17;7.40;;;;;;;21.81;28.04;94689.84;6112763;28;103646;-55
2022/04/20 02:00:38;;;;;;;7.13;6.63;;;;;;;21.81;28.21;94693.31;6136033;28;103112;-56
2022/04/20 02:03:39;;;;;;;7.43;6.90;;;;;;;21.81;28.51;94693.31;6138328;28;103230;-56
2022/04/20 02:06:41;;;;;;;7.03;6.53;;;;;;;21.80;28.36;94699.72;6131180;28;103462;-55
2022/04/20 02:09:43;;;;;;;6.90;6.40;;;;;;;21.82;28.37;94707.44;6129210;28;103645;-57
2022/04/20 02:12:45;;;;;;;7.23;6.70;;;;;;;21.81;27.81;94703.97;6131900;28;104025;-56
2022/04/20 02:15:47;;;;;;;7.20;6.70;;;;;;;21.80;28.33;94702.38;6134256;28;103237;-56
2022/04/20 02:18:48;;;;;;;7.43;6.93;;;;;;;21.80;28.33;94702.38;6125667;28;103328;-56
2022/04/20 02:21:50;;;;;;;6.73;6.33;;;;;;;21.80;28.19;94693.63;6113016;28;104581;-56
2022/04/20 02:24:52;;;;;;;6.63;6.13;;;;;;;21.80;27.93;94685.63;6126737;28;104403;-56
2022/04/20 02:27:53;;;;;;;7.27;6.67;;;;;;;21.80;28.03;94683.75;6135491;28;102830;-58
2022/04/20 02:30:55;;;;;;;6.33;5.83;;;;;;;21.81;27.91;94689.84;6126337;28;103833;-55
2022/04/20 02:33:57;;;;;;;6.83;6.33;;;;;;;21.81;28.12;94671.22;6135984;28;103811;-56
2022/04/20 02:36:59;;;;;;;7.07;6.57;;;;;;;21.80;28.12;94675.75;6135251;28;103040;-56
2022/04/20 02:40:01;;;;;;;7.20;6.70;;;;;;;21.79;27.85;94681.41;6134344;28;102806;-56
2022/04/20 02:43:02;;;;;;;7.57;6.97;;;;;;;21.80;27.94;94682.97;6124660;28;103621;-54
2022/04/20 02:46:05;;;;;;;6.70;6.20;;;;;;;21.80;27.98;94675.75;6110524;28;103129;-56
2022/04/20 02:49:07;;;;;;;6.57;5.97;;;;;;;21.80;28.07;94686.41;6120121;28;104032;-53
2022/04/20 02:52:09;;;;;;;6.63;6.03;;;;;;;21.80;27.85;94675.75;6130516;28;103638;-57
2022/04/20 02:55:11;;;;;;;6.40;5.90;;;;;;;21.80;28.19;94680.28;6130058;28;103439;-56
2022/04/20 02:58:13;;;;;;;6.10;5.70;;;;;;;21.80;28.10;94686.41;6133654;28;103290;-56
2022/04/20 03:01:14;;;;;;;6.13;5.63;;;;;;;21.80;28.16;94688.28;6134769;28;103100;-56
2022/04/20 03:04:17;;;;;;;6.37;5.90;;;;;;;21.80;27.98;94701.59;6125853;28;103449;-56
2022/04/20 03:07:18;;;;;;;6.67;6.17;;;;;;;21.80;28.11;94693.63;6135057;28;103248;-52
2022/04/20 03:10:22;;;;;;;7.20;6.60;;;;;;;21.81;27.85;94689.84;6135803;28;102998;-56
2022/04/20 03:13:24;;;;;;;6.47;6.07;;;;;;;21.80;28.01;94701.59;6133228;28;104407;-56
2022/04/20 03:16:26;;;;;;;6.20;5.60;;;;;;;21.78;28.01;94699.25;6136774;28;104216;-56
2022/04/20 03:19:28;;;;;;;7.10;6.53;;;;;;;21.81;27.96;94708.50;6130794;28;103179;-62
2022/04/20 03:22:29;;;;;;;7.23;6.47;;;;;;;21.71;28.31;94698.94;6131658;28;103435;-55
2022/04/20 03:25:31;;;;;;;7.07;6.57;;;;;;;21.65;28.02;94710.03;6138629;28;104157;-56
2022/04/20 03:28:33;;;;;;;11.83;8.27;;;;;;;21.55;27.42;94702.38;6126274;28;103109;-57
2022/04/20 03:31:37;;;;;;;8.47;7.70;;;;;;;21.54;27.29;94712.22;6137274;28;103140;-58
2022/04/20 03:34:39;;;;;;;8.97;7.67;;;;;;;21.46;27.27;94697.78;6125835;28;104008;-56
2022/04/20 03:37:41;;;;;;;9.17;8.27;;;;;;;21.48;27.64;94695.59;6123171;28;103344;-55
2022/04/20 03:40:44;;;;;;;8.00;7.30;;;;;;;21.47;27.58;94694.03;6132098;28;103549;-53
2022/04/20 03:43:46;;;;;;;9.10;8.33;;;;;;;21.39;27.25;94694.81;6141003;28;103642;-59
2022/04/20 03:46:47;;;;;;;8.80;8.00;;;;;;;21.37;27.23;94693.56;6138663;28;104276;-56
2022/04/20 03:49:49;;;;;;;8.97;8.10;;;;;;;21.37;26.98;94689.00;6128930;28;104204;-53
2022/04/20 03:52:51;;;;;;;9.50;8.70;;;;;;;21.37;26.76;94686.34;6137939;28;103295;-56
2022/04/20 03:55:52;;;;;;;10.20;9.20;;;;;;;21.41;25.94;94694.50;6138340;28;103205;-57
2022/04/20 03:58:54;;;;;;;9.43;8.63;;;;;;;21.42;26.49;94680.88;6138525;28;104257;-56
2022/04/20 04:01:56;;;;;;;9.50;8.60;;;;;;;21.50;26.60;94687.28;6130981;28;105185;-54
2022/04/20 04:04:57;;;;;;;10.57;9.67;;;;;;;21.52;26.64;94691.25;6136777;28;104691;-57
2022/04/20 04:07:59;;;;;;;9.37;8.53;;;;;;;21.65;27.05;94688.72;6129342;28;103435;-57
2022/04/20 04:11:01;;;;;;;9.70;8.80;;;;;;;21.73;26.85;94685.31;6135022;28;104059;-57
2022/04/20 04:14:03;;;;;;;9.53;8.73;;;;;;;21.75;27.46;94678.56;6124527;28;103115;-55
2022/04/20 04:17:05;;;;;;;9.43;8.43;;;;;;;21.76;27.69;94658.84;6148816;28;104289;-56
2022/04/20 04:20:08;;;;;;;9.30;8.50;;;;;;;21.79;27.35;94673.41;6147002;28;103112;-56
2022/04/20 04:23:10;;;;;;;9.17;7.53;;;;;;;21.80;26.98;94669.66;6130777;28;104139;-56
2022/04/20 04:26:11;;;;;;;8.70;7.93;;;;;;;21.84;27.64;94665.28;6132036;28;103415;-57
2022/04/20 04:29:13;;;;;;;8.43;7.63;;;;;;;21.85;27.28;94663.44;6131790;28;104126;-56
2022/04/20 04:32:15;;;;;;;9.30;8.50;;;;;;;21.93;28.03;94670.63;6133835;28;104231;-55
2022/04/20 04:35:17;;;;;;;9.67;8.17;;;;;;;21.93;28.12;94668.75;6126828;28;103022;-54
2022/04/20 04:38:19;;;;;;;8.57;7.80;;;;;;;21.94;27.54;94654.31;6136236;28;102947;-57
2022/04/20 04:41:21;;;;;;;9.37;7.80;;;;;;;21.92;27.72;94651.19;6136642;28;103460;-57
2022/04/20 04:44:23;;;;;;;7.97;7.30;;;;;;;21.88;28.16;94644.16;6138144;28;104421;-57
2022/04/20 04:50:46;;;;;;;9.03;8.00;;;;;;;21.91;28.77;94654.19;6138400;28;104105;-57
2022/04/20 04:53:48;;;;;;;9.20;7.87;;;;;;;21.86;29.03;94663.13;6138202;28;102852;-56
2022/04/20 04:56:50;;;;;;;10.23;9.30;;;;;;;21.77;28.52;94678.25;6133917;28;104892;-57
2022/04/20 04:59:52;;;;;;;8.57;7.93;;;;;;;21.79;28.97;94684.84;6131944;28;103351;-57
2022/04/20 05:02:55;;;;;;;9.30;8.50;;;;;;;21.85;28.85;94674.09;6137991;28;103133;-57
2022/04/20 05:05:57;;;;;;;8.37;7.50;;;;;;;21.87;28.96;94671.88;6137414;28;104040;-56
2022/04/20 05:08:59;;;;;;;8.90;8.20;;;;;;;21.89;28.93;94667.81;6127832;28;103069;-57
2022/04/20 05:12:01;;;;;;;12.93;8.30;;;;;;;21.91;28.90;94670.16;6137667;28;103262;-56
2022/04/20 05:15:03;;;;;;;9.03;8.03;;;;;;;21.92;28.98;94666.41;6137009;28;103318;-57
2022/04/20 05:18:05;;;;;;;8.70;7.80;;;;;;;21.91;28.88;94662.94;6136664;28;103248;-57
2022/04/20 05:21:07;;;;;;;8.53;7.83;;;;;;;21.93;29.38;94678.63;6108858;28;103361;-57
2022/04/20 05:24:09;;;;;;;11.17;8.43;;;;;;;21.93;28.95;94679.41;6112158;28;102978;-54
2022/04/20 05:27:11;;;;;;;14.10;8.13;;;;;;;21.96;29.67;94684.09;6113040;28;103098;-55
2022/04/20 05:30:14;;;;;;;8.00;7.30;;;;;;;21.97;29.68;94696.31;6112936;28;103931;-56
2022/04/20 05:33:16;;;;;;;7.97;6.80;;;;;;;21.98;29.69;94697.09;6102805;28;103301;-56
2022/04/20 05:36:21;;;;;;;10.50;7.00;;;;;;;21.96;30.01;94697.41;6112690;28;103346;-55
2022/04/20 05:42:42;;;;;;;8.70;7.77;;;;;;;21.97;29.69;94695.53;6131304;28;103358;-52
2022/04/20 05:45:44;;;;;;;7.70;6.97;;;;;;;21.96;30.11;94697.41;6132534;28;105077;-56
2022/04/20 05:48:46;;;;;;;7.50;6.93;;;;;;;21.98;30.43;94689.91;6135517;28;103550;-56
2022/04/20 05:51:48;;;;;;;7.97;7.27;;;;;;;21.96;30.08;94692.09;6136549;28;103829;-56
2022/04/20 05:54:49;;;;;;;7.60;6.90;;;;;;;21.96;29.81;94710.75;6126495;28;103876;-56
2022/04/20 05:57:52;;;;;;;7.93;7.13;;;;;;;22.05;30.45;94713.44;6136861;28;103175;-56
2022/04/20 06:00:53;;;;;;;7.57;6.87;;;;;;;22.11;30.31;94723.59;6136451;28;103263;-56
2022/04/20 06:03:55;;;;;;;6.73;6.10;;;;;;;22.14;30.47;94724.06;6136427;28;103560;-56
2022/04/20 06:06:57;;;;;;;10.10;6.93;;;;;;;22.16;30.79;94730.66;6125643;28;104344;-57
2022/04/20 06:09:59;;;;;;;7.00;6.40;;;;;;;22.09;30.99;94725.81;6136307;28;103202;-56
2022/04/20 06:13:00;;;;;;;7.43;6.33;;;;;;;22.09;30.53;94720.47;6136254;28;104201;-56
2022/04/20 06:16:05;;;;;;;6.80;6.20;;;;;;;22.09;30.60;94725.00;6136029;28;103898;-56
2022/04/20 06:19:07;;;;;;;6.80;6.17;;;;;;;22.06;31.06;94721.09;6127235;28;105426;-56
2022/04/20 06:22:09;;;;;;;6.60;5.97;;;;;;;22.03;30.90;94716.41;6136135;28;104237;-56
2022/04/20 06:25:11;;;;;;;6.60;6.00;;;;;;;22.02;30.53;94709.50;6136099;28;103234;-56
2022/04/20 06:28:12;;;;;;;11.30;6.27;;;;;;;22.02;30.87;94720.16;6128629;28;103200;-55
2022/04/20 06:31:14;;;;;;;6.40;5.80;;;;;;;22.04;30.77;94709.19;6134150;28;104170;-55
2022/04/20 06:34:16;;;;;;;6.63;6.10;;;;;;;22.02;31.12;94698.84;6136057;28;103047;-56
2022/04/20 06:37:18;;;;;;;7.10;6.50;;;;;;;22.03;30.89;94716.41;6135572;28;103154;-56
2022/04/20 06:40:20;;;;;;;6.47;5.97;;;;;;;22.03;30.99;94708.41;6126489;28;103991;-56
2022/04/20 06:43:22;;;;;;;7.00;6.43;;;;;;;22.03;31.06;94700.41;6135708;28;104266;-56
2022/04/20 06:46:24;;;;;;;7.60;6.90;;;;;;;22.04;30.81;94699.31;6136003;28;104390;-56
2022/04/20 06:49:26;;;;;;;6.43;5.80;;;;;;;22.08;31.11;94699.47;6134749;28;104117;-55
2022/04/20 06:59:09;;;;;;;6.73;6.10;;;;;;;22.10;30.99;94711.38;6139496;28;103125;-55
2022/04/20 07:02:11;;;;;;;5.97;5.37;;;;;;;22.09;30.87;94704.47;6134150;28;103375;-55
2022/04/20 07:05:12;;;;;;;7.00;5.77;;;;;;;22.11;30.82;94707.63;6135842;28;105701;-54
2022/04/20 07:08:14;;;;;;;6.43;5.90;;;;;;;22.11;30.82;94702.28;6138804;28;104743;-55
2022/04/20 07:11:16;;;;;;;5.83;4.97;;;;;;;22.11;31.06;94691.63;6139850;28;104181;-51
2022/04/20 07:14:18;;;;;;;6.00;5.50;;;;;;;22.12;31.46;94689.75;6129029;28;104466;-55
2022/04/20 07:17:20;;;;;;;6.20;5.70;;;;;;;22.11;31.31;94696.97;6140113;28;104230;-55
2022/04/20 07:20:21;;;;;;;6.37;5.73;;;;;;;22.11;30.86;94702.28;6138556;28;104258;-55
2022/04/20 07:23:23;;;;;;;5.97;5.07;;;;;;;22.08;30.73;94712.78;6139965;28;104128;-55
2022/04/20 07:26:26;;;;;;;7.33;5.80;;;;;;;22.01;30.92;94715.94;6129061;28;104177;-53
2022/04/20 07:29:28;;;;;;;6.33;5.70;;;;;;;22.03;30.67;94721.72;6139559;28;103033;-55
2022/04/20 07:32:29;;;;;;;6.00;5.40;;;;;;;22.05;31.19;94722.19;6139890;28;103292;-56
2022/04/20 07:35:35;;;;;;;6.23;5.63;;;;;;;22.08;30.87;94718.13;6135590;28;104159;-53
2022/04/20 07:38:38;;;;;;;9.60;5.77;;;;;;;22.08;30.67;94723.44;6134145;28;104343;-64
2022/04/20 07:41:40;;;;;;;5.67;4.93;;;;;;;22.04;31.19;94711.84;6139395;28;104277;-57
2022/04/20 07:44:41;;;;;;;7.20;5.70;;;;;;;22.01;30.44;94718.59;6139524;28;103229;-55
2022/04/20 07:47:43;;;;;;;7.43;5.57;;;;;;;22.03;30.86;94708.41;6129315;28;102910;-56
2022/04/20 07:50:46;;;;;;;14.43;5.70;;;;;;;22.06;30.67;94701.66;6137384;28;103050;-55
2022/04/20 07:53:47;;;;;;;6.50;5.90;;;;;;;22.09;30.80;94703.69;6139186;28;103099;-55
2022/04/20 07:56:49;;;;;;;5.40;5.00;;;;;;;22.07;30.55;94701.34;6137552;28;104128;-55
2022/04/20 07:59:51;;;;;;;6.23;5.63;;;;;;;22.10;30.69;94707.94;6128609;28;103942;-56
2022/04/20 08:03:16;;;;;;;7.33;5.70;;;;;;;22.09;30.66;94703.69;6138730;28;103989;-55
2022/04/20 08:06:17;;;;;;;5.63;5.20;;;;;;;22.11;30.52;94701.50;6138652;28;103075;-55
2022/04/20 08:09:19;;;;;;;5.93;5.40;;;;;;;22.10;30.92;94698.06;6138463;28;104472;-55
2022/04/20 08:12:21;;;;;;;6.37;5.87;;;;;;;22.11;30.69;94696.16;6127334;28;103218;-56
2022/04/20 08:15:22;;;;;;;6.50;5.90;;;;;;;22.11;30.72;94688.97;6138090;28;103141;-56
2022/04/20 08:18:25;;;;;;;6.20;5.70;;;;;;;22.13;30.75;94695.84;6137957;28;104412;-55
2022/04/20 08:21:27;;;;;;;6.60;5.40;;;;;;;22.11;30.56;94690.84;6132364;28;103517;-56
2022/04/20 08:24:29;;;;;;;6.40;5.80;;;;;;;22.14;31.28;94689.44;6134033;28;103633;-56
2022/04/20 08:27:31;;;;;;;6.83;6.23;;;;;;;22.15;31.04;94681.13;6138073;28;103084;-55
2022/04/20 08:30:34;;;;;;;6.47;5.87;;;;;;;22.13;31.12;94667.31;6138571;28;102899;-55
2022/04/20 08:33:35;;;;;;;6.37;5.70;;;;;;;22.17;31.31;94652.25;6127943;28;104081;-56
2022/04/20 08:36:37;;;;;;;6.27;5.77;;;;;;;22.19;31.18;94665.31;6138117;28;103063;-55
2022/04/20 08:39:39;;;;;;;6.20;5.70;;;;;;;22.19;31.27;94673.28;6137167;28;103668;-55
2022/04/20 08:42:41;;;;;;;6.40;5.50;;;;;;;22.14;31.13;94660.13;6137669;28;103180;-55
2022/04/20 08:45:44;;;;;;;6.10;5.70;;;;;;;22.20;31.15;94659.66;6128012;28;104050;-56
2022/04/20 08:48:46;;;;;;;6.30;5.70;;;;;;;22.25;31.27;94645.38;6137758;28;103346;-59
2022/04/20 08:55:14;;;;;;;11.90;9.27;;;;;;;22.15;30.83;94640.34;6129402;28;104076;-57
2022/04/20 08:58:16;;;;;;;10.20;9.40;;;;;;;22.11;31.19;94638.31;6131261;28;103281;-57
2022/04/20 09:01:18;;;;;;;12.30;11.03;;;;;;;22.09;31.04;94629.88;6137084;28;103182;-58
2022/04/20 09:04:21;;;;;;;13.30;11.87;;;;;;;22.11;30.81;94645.53;6137421;28;103302;-55
2022/04/20 09:07:24;;;;;;;11.80;10.90;;;;;;;22.10;30.69;94641.31;6127580;28;104123;-55
2022/04/20 09:10:26;;;;;;;12.40;11.20;;;;;;;22.11;30.48;94642.88;6137344;28;104331;-56
2022/04/20 09:13:35;;;;;;;12.20;11.20;;;;;;;22.10;30.70;94628.00;6137513;28;104088;-56
2022/04/20 09:16:37;;;;;;;11.93;10.87;;;;;;;22.06;30.80;94622.50;6137435;28;102907;-55
2022/04/20 09:19:40;;;;;;;10.90;10.00;;;;;;;22.10;30.62;94617.31;6125579;28;104130;-55
2022/04/20 09:22:42;;;;;;;10.83;9.93;;;;;;;22.09;30.86;94608.56;6136880;28;104307;-55
2022/04/20 09:25:48;;;;;;;11.50;10.60;;;;;;;22.12;30.64;94601.81;6136981;28;103244;-55
2022/04/20 09:29:07;;;;;;;10.63;9.70;;;;;;;22.15;30.45;94593.16;6123662;28;103158;-54
2022/04/20 09:32:08;;;;;;;10.27;9.37;;;;;;;22.16;31.29;94584.06;6126882;28;105449;-55
2022/04/20 09:35:16;;;;;;;13.87;10.00;;;;;;;22.21;30.65;94593.81;6137189;28;103101;-55
2022/04/20 09:38:20;;;;;;;10.50;9.37;;;;;;;22.20;30.78;94586.91;6137264;28;103387;-55
2022/04/20 09:41:21;;;;;;;10.30;9.50;;;;;;;22.20;31.43;94587.69;6127355;28;103817;-56
2022/04/20 09:44:23;;;;;;;10.30;9.30;;;;;;;22.21;31.08;94591.13;6136945;28;104287;-55
2022/04/20 09:50:47;;;;;;;11.60;10.50;;;;;;;22.16;31.19;94575.31;6137161;28;103167;-58
2022/04/20 09:53:49;;;;;;;11.17;10.27;;;;;;;22.11;31.17;94563.72;6126473;28;104073;-57
2022/04/20 09:57:11;;;;;;;11.33;10.30;;;;;;;22.11;31.47;94560.28;6136695;28;104198;-58
2022/04/20 10:00:15;;;;;;;11.20;10.30;;;;;;;22.09;30.84;94559.81;6137475;28;103126;-58
2022/04/20 10:03:28;;;;;;;13.57;12.27;;;;;;;22.08;31.31;94569.69;6131202;28;103055;-57
2022/04/20 10:06:31;;;;;;;12.10;11.20;;;;;;;22.07;31.16;94554.78;6131381;28;103237;-57
2022/04/20 10:09:32;;;;;;;11.80;10.90;;;;;;;22.14;31.57;94577.50;6136216;28;103295;-56
2022/04/20 10:12:38;;;;;;;12.10;10.90;;;;;;;22.12;31.58;94551.16;6135547;28;104422;-55
2022/04/20 10:19:00;;;;;;;12.00;11.00;;;;;;;22.14;31.18;94546.31;6111510;28;104072;-56
2022/04/20 10:22:05;;;;;;;11.43;10.30;;;;;;;22.13;30.96;94547.41;6136723;28;104072;-55
2022/04/20 10:25:08;;;;;;;11.40;10.50;;;;;;;22.13;31.13;94552.75;6135326;28;104328;-54
2022/04/20 10:28:51;;;;;;;10.90;10.00;;;;;;;22.11;30.92;94570.94;6125646;28;103197;-56
2022/04/20 10:32:19;;;;;;;10.80;9.80;;;;;;;22.10;31.21;94535.50;6133475;28;103888;-54
2022/04/20 10:35:21;;;;;;;9.97;9.07;;;;;;;22.10;30.73;94524.84;6133564;28;103100;-55
2022/04/20 10:38:23;;;;;;;9.97;9.17;;;;;;;22.10;30.62;94519.50;6124206;28;104093;-55
2022/04/20 10:41:25;;;;;;;10.17;9.17;;;;;;;22.11;30.68;94521.09;6131888;28;103610;-54
2022/04/20 10:44:55;;;;;;;9.93;9.10;;;;;;;22.11;30.87;94528.28;6134251;28;103996;-55
2022/04/20 10:47:57;;;;;;;9.07;8.37;;;;;;;22.10;30.95;94505.41;6136045;28;103099;-55
2022/04/20 10:51:16;;;;;;;9.30;8.60;;;;;;;22.11;30.95;94505.09;6126934;28;104450;-55
2022/04/20 10:54:24;;;;;;;9.20;8.50;;;;;;;22.09;30.89;94496.63;6135773;28;104034;-55
2022/04/20 10:57:37;;;;;;;8.70;8.10;;;;;;;22.11;30.87;94501.66;6135668;28;104070;-55
2022/04/20 11:00:39;;;;;;;8.60;7.90;;;;;;;22.09;30.47;94493.97;6128944;28;102945;-52
2022/04/20 11:03:58;;;;;;;9.27;8.30;;;;;;;22.08;30.43;94495.06;6132603;28;104049;-54
2022/04/20 11:07:01;;;;;;;8.50;7.90;;;;;;;22.07;30.45;94498.84;6135964;28;103072;-56
2022/04/20 11:10:05;;;;;;;8.17;7.57;;;;;;;22.07;30.53;94504.16;6135434;28;103138;-56
2022/04/20 11:20:25;;;;;;;8.43;7.70;;;;;;;22.05;30.72;94502.94;6135777;28;103164;-55
2022/04/20 11:24:08;;;;;;;7.77;7.17;;;;;;;22.05;30.53;94509.03;6127310;28;105505;-56
2022/04/20 11:27:10;;;;;;;7.80;7.20;;;;;;;22.04;30.51;94491.50;6135530;28;103177;-56
2022/04/20 11:30:14;;;;;;;7.37;6.80;;;;;;;22.04;30.58;94488.81;6134867;28;103208;-56
2022/04/20 11:33:16;;;;;;;6.80;6.30;;;;;;;22.04;30.66;94482.72;6135071;28;103170;-56
2022/04/20 11:36:18;;;;;;;7.00;6.40;;;;;;;22.04;30.23;94485.38;6125688;28;104227;-55
2022/04/20 11:39:23;;;;;;;7.37;6.87;;;;;;;22.03;30.52;94497.91;6135004;28;103160;-55
2022/04/20 11:42:24;;;;;;;7.07;6.53;;;;;;;22.03;30.19;94492.59;6136199;28;103162;-53
2022/04/20 11:45:32;;;;;;;6.90;6.40;;;;;;;22.04;30.51;94488.03;6137224;28;103930;-55
2022/04/20 11:48:35;;;;;;;6.57;6.07;;;;;;;22.05;30.41;94497.59;6133906;28;103776;-56
2022/04/20 11:51:38;;;;;;;8.10;7.50;;;;;;;22.02;30.59;94492.91;6139368;28;103054;-55
2022/04/20 11:54:43;;;;;;;7.10;6.50;;;;;;;21.99;30.42;94499.63;6139011;28;103134;-55
2022/04/20 11:57:44;;;;;;;7.20;6.60;;;;;;;22.03;30.16;94502.47;6129724;28;104829;-54
2022/04/20 12:00:46;;;;;;;8.10;7.40;;;;;;;22.01;30.65;94505.44;6136905;28;104150;-55
2022/04/20 12:03:50;;;;;;;7.40;6.80;;;;;;;22.03;30.47;94502.47;6138922;28;103328;-56
2022/04/20 12:07:00;;;;;;;7.43;6.80;;;;;;;22.03;30.22;94510.47;6138907;28;104291;-55
2022/04/20 12:10:03;;;;;;;7.30;6.70;;;;;;;22.02;30.38;94503.56;6124801;28;103268;-55
2022/04/20 12:13:06;;;;;;;6.93;6.33;;;;;;;22.02;30.40;94504.34;6139058;28;104357;-55
2022/04/20 12:16:10;;;;;;;6.53;6.00;;;;;;;22.02;30.23;94512.34;6137995;28;103898;-55
2022/04/20 12:19:12;;;;;;;7.03;6.53;;;;;;;22.03;30.15;94507.78;6138417;28;103040;-56
2022/04/20 12:22:23;;;;;;;6.50;6.00;;;;;;;22.00;30.26;94511.84;6127970;28;104130;-53
2022/04/20 12:25:28;;;;;;;6.47;6.00;;;;;;;22.01;30.19;94518.78;6138597;28;104205;-55
2022/04/20 12:28:43;;;;;;;6.13;5.63;;;;;;;21.99;30.71;94512.97;6138804;28;103010;-56
2022/04/20 12:31:49;;;;;;;6.07;5.67;;;;;;;21.98;30.61;94521.25;6128387;28;105265;-55
2022/04/20 12:34:59;;;;;;;6.17;5.67;;;;;;;21.99;30.18;94512.19;6138212;28;104100;-54
2022/04/20 12:38:01;;;;;;;6.77;6.27;;;;;;;22.00;30.55;94540.38;6138707;28;104193;-55
2022/04/20 12:41:03;;;;;;;6.20;5.70;;;;;;;22.00;30.00;94549.16;6138482;28;104222;-55
2022/04/20 12:44:36;;;;;;;6.53;6.00;;;;;;;22.00;30.19;94572.34;6127793;28;105078;-55
2022/04/20 12:47:39;;;;;;;6.30;5.83;;;;;;;22.02;29.96;94600.28;6135308;28;104023;-54
2022/04/20 12:50:43;;;;;;;6.67;6.07;;;;;;;22.05;30.44;94610.28;6121045;28;104214;-55
2022/04/20 12:53:45;;;;;;;8.10;6.43;;;;;;;22.06;30.75;94611.06;6106406;28;104410;-54
2022/04/20 13:03:37;;;;;;;6.40;5.90;;;;;;;22.09;30.84;94607.78;6112677;28;103213;-51
2022/04/20 13:06:38;;;;;;;6.70;6.10;;;;;;;22.10;31.48;94626.09;6103700;28;103981;-51
2022/04/20 13:09:40;;;;;;;7.30;6.80;;;;;;;22.13;31.17;94637.22;6125266;28;102893;-51
2022/04/20 13:12:53;;;;;;;7.30;6.80;;;;;;;22.13;31.13;94643.34;6137727;28;103082;-51
2022/04/20 13:15:54;;;;;;;6.83;6.33;;;;;;;22.13;31.30;94638.00;6136373;28;103166;-51
2022/04/20 13:18:56;;;;;;;7.20;6.70;;;;;;;22.14;31.15;94652.91;6127562;28;103242;-52
2022/04/20 13:21:58;;;;;;;7.87;7.17;;;;;;;22.16;31.47;94660.56;6112802;28;102954;-51
2022/04/20 13:28:20;;;;;;;7.83;7.13;;;;;;;22.16;31.41;94649.91;6106202;28;104208;-51
2022/04/20 13:31:22;;;;;;;7.77;7.03;;;;;;;22.16;31.39;94652.59;6110781;28;103010;-51
2022/04/20 13:34:26;;;;;;;8.37;7.77;;;;;;;22.17;31.40;94646.16;6112359;28;103085;-51
2022/04/20 13:37:28;;;;;;;6.90;6.40;;;;;;;22.08;31.14;94644.28;6134291;28;103011;-51
2022/04/20 13:40:33;;;;;;;7.47;6.87;;;;;;;22.08;30.84;94676.28;6127232;28;104311;-51
2022/04/20 13:43:35;;;;;;;7.23;6.67;;;;;;;22.11;31.08;94670.31;6137228;28;104177;-51
2022/04/20 13:46:37;;;;;;;7.93;7.23;;;;;;;22.07;31.15;94669.38;6136370;28;102842;-51
2022/04/20 13:49:41;;;;;;;7.60;7.10;;;;;;;22.15;31.23;94686.44;6136679;28;103003;-52
2022/04/20 13:52:43;;;;;;;8.10;7.40;;;;;;;22.14;31.22;94684.88;6124390;28;104172;-51
2022/04/20 13:55:44;;;;;;;8.17;7.50;;;;;;;22.17;31.04;94683.47;6137069;28;103034;-51
2022/04/20 13:58:47;;;;;;;7.40;6.90;;;;;;;22.17;30.99;94694.91;6136129;28;103078;-51
2022/04/20 14:01:49;;;;;;;8.20;7.43;;;;;;;22.19;31.31;94702.63;6133503;28;104059;-52
2022/04/20 14:04:51;;;;;;;6.97;6.50;;;;;;;22.18;30.98;94707.16;6129393;28;103030;-51
2022/04/20 14:07:52;;;;;;;8.67;7.97;;;;;;;22.18;31.22;94711.69;6136156;28;102863;-51
2022/04/20 14:10:54;;;;;;;7.53;6.83;;;;;;;22.18;31.21;94714.34;6136724;28;103268;-51
2022/04/20 14:13:57;;;;;;;7.90;7.23;;;;;;;22.19;31.24;94713.28;6126295;28;103218;-52
2022/04/20 14:16:58;;;;;;;7.83;7.23;;;;;;;22.19;31.48;94734.59;6136031;28;102862;-52
2022/04/20 14:20:00;;;;;;;8.10;7.50;;;;;;;22.17;30.97;94745.53;6136572;28;104770;-51
2022/04/20 14:23:02;;;;;;;9.30;8.40;;;;;;;22.10;31.32;94750.56;6136669;28;103019;-51
2022/04/20 14:32:48;;;;;;;12.43;11.43;;;;;;;22.21;31.06;94765.16;6136343;28;103077;-48
2022/04/20 14:35:50;;;;;;;12.30;11.20;;;;;;;22.23;31.17;94772.84;6132816;28;102948;-51
2022/04/20 14:38:52;;;;;;;12.30;11.20;;;;;;;22.23;31.21;94780.84;6129720;28;104130;-50
2022/04/20 14:41:55;;;;;;;11.43;10.43;;;;;;;22.24;31.57;94769.09;6136273;28;104255;-50
2022/04/20 14:44:57;;;;;;;11.37;10.47;;;;;;;22.27;31.07;94763.91;6135323;28;103106;-51
2022/04/20 14:48:01;;;;;;;13.80;10.60;;;;;;;22.30;31.28;94765.16;6126768;28;104125;-50
2022/04/20 14:51:04;;;;;;;11.93;10.90;;;;;;;22.32;31.25;94768.28;6135359;28;103031;-50
2022/04/20 14:54:08;;;;;;;10.10;9.20;;;;;;;22.31;31.17;94772.84;6136490;28;104167;-50
2022/04/20 14:57:10;;;;;;;10.90;10.00;;;;;;;22.34;31.14;94766.09;6136244;28;102663;-51
2022/04/20 15:00:12;;;;;;;10.07;9.27;;;;;;;22.34;31.47;94755.44;6125123;28;103274;-50